MAY weather

8 de Mayo Airstrip
Hermosillo, Sonora, Mexico

Public forecast

Using degrees Celsius for public forecast. Weather courtesy of forecast.io.

Closest aviation weather report (METAR) to 8 de Mayo Airstrip

Report is more than 2 hours old.

Closest report is General Ignacio P. Garcia International Airport, 19.5 nm (36.1 km) ENE. Retrieved 2020/06/02 02:40 UTC (3 hours ago):

MMHO 020240Z 24009KT 10SM SKC 32/20 A2985 RMK SLP099 52021 9// DSNT CB N AND E HZY

Closest aviation forecast (TAF) to 8 de Mayo Airstrip

Forecast is more than 6 hours old.

Closest forecast is General Ignacio P. Garcia International Airport, 19.5 nm (36.1 km) ENE. Retrieved 2020/06/01 18:09 UTC (12 hours ago):

TAF MMHO 011706Z 0118/0218 26012KT P6SM SKC BECMG 0200/0201 00000KT FM021500 12010KT P6SM SKC